Van Meter, Iowa
Current Conditions -  °F | °C
As of 3:54 AM on Thursday 23 Oct 2014 (Local Time) from KDSM Reporting Station
Overcast Overcast  
Wind Chill: 53°   Ceiling: 10000
Heat Index: 53°   Visibility: 10mi
Dew Point: 49°   Wind: 8mph
Humidity: 86%   Direction: 170°S
Pressure: 30.07"   Gusts: NA
Location:  41.53°N, 93.95°W
Report Text: KDSM 230854Z 17007KT 10SM OVC100 12/09 A3007 RMK AO2 RAE36 SLP181 P0005 60019 T01170094 58016
Loading
Personal Weather Stations






























Interactive Weather Map
Tropical Storm Tracking
New forecast layout! Learn more

10-Day Weather Forecast

Advertisements
Track Severe Weather on mobile